Gary Chicago International Airport Gary US
ICAO: KGYY
IATA: GYY
Category: Medium
Scheduled Services: No

Elevation: 591 ft
TransAlt. 18000 ft.

Airport Communications:
CHICAGO APP/DEP:133.1
ATIS:120.625
CTAF:125.6
GND:121.9
KANKAKEE RDO:114.2
TERRE HAUTE RDO:123.65
TWR:125.6

KGYY Zoom In..

Runways:

(A) RW 02 length 3603 ft width 100 ft
---- / hdg 23

(B) RW 12 length 7003 ft width 150 ft
---- / hdg 126

(C) RW 20 length 3603 ft width 100 ft
---- / hdg 203

(D) RW 30 length 7003 ft width 150 ft
ILS 108.75 / hdg 306

Location; KGYY
Day. 10 / Time. 10.45 Zulu
* Altimeter: 30.00
* Temperature: 02° c. 35.6°f.
* Wind from: 290° Speed 10 kn.
Dewpoint: -06° c.
Visibility: 10 Statute Miles.
Clouds: Clear (manual report).

KGYY 101045Z 29010KT 10SM SKC 02/M06 A3000


Wind From 290°
Speed 10 kn.

 
 
jpsmedia worldairports.se 2020   terms of use